createdAt,value
2019-02-15T00:01:06.901Z,103296.52
2019-02-15T00:03:36.373Z,103294.10
2019-02-15T00:06:06.206Z,103295.61
2019-02-15T00:08:36.166Z,103296.58
2019-02-15T00:11:05.714Z,103301.37
2019-02-15T00:13:35.401Z,103292.72
2019-02-15T00:16:04.623Z,103287.81
2019-02-15T00:18:55.655Z,103292.48
2019-02-15T00:21:27.642Z,103295.38
2019-02-15T00:23:56.911Z,103297.06
2019-02-15T00:26:26.130Z,103291.86
2019-02-15T00:28:55.428Z,103293.30
2019-02-15T00:31:24.670Z,103285.29
2019-02-15T00:33:53.996Z,103295.45
2019-02-15T00:36:23.278Z,103299.34
2019-02-15T00:38:52.534Z,103292.98
2019-02-15T00:41:21.820Z,103289.36
2019-02-15T00:43:51.085Z,103295.35
2019-02-15T00:46:51.666Z,103296.55
2019-02-15T00:49:52.280Z,103304.94
2019-02-15T00:52:43.441Z,103306.04
2019-02-15T00:55:27.001Z,103299.95
2019-02-15T00:58:18.154Z,103302.23
2019-02-15T01:01:09.351Z,103302.28
2019-02-15T01:04:16.459Z,103300.14
2019-02-15T01:07:39.317Z,103308.29
2019-02-15T01:10:33.397Z,103303.72
2019-02-15T01:13:12.881Z,103301.27
2019-02-15T01:15:42.180Z,103296.38
2019-02-15T01:18:11.476Z,103299.09
2019-02-15T01:20:40.726Z,103299.09
2019-02-15T01:23:10.984Z,103298.04
2019-02-15T01:25:49.649Z,103295.59
2019-02-15T01:28:36.117Z,103292.13
2019-02-15T01:31:25.971Z,103291.09
2019-02-15T01:34:26.212Z,103292.15
2019-02-15T01:37:06.467Z,103299.58
2019-02-15T01:39:44.528Z,103297.73
2019-02-15T01:42:32.100Z,103294.33
2019-02-15T01:45:14.741Z,103289.52
2019-02-15T01:47:46.797Z,103291.26
2019-02-15T01:50:16.033Z,103290.74
2019-02-15T01:52:45.283Z,103289.16
2019-02-15T01:55:14.528Z,103291.78
2019-02-15T01:57:43.817Z,103288.90
2019-02-15T02:00:15.718Z,103286.95
2019-02-15T02:02:44.955Z,103286.39
2019-02-15T02:05:14.253Z,103282.23
2019-02-15T02:07:43.504Z,103286.27
2019-02-15T02:10:12.730Z,103288.64
2019-02-15T02:12:42.062Z,103293.88
2019-02-15T02:15:12.033Z,103294.61
2019-02-15T02:17:41.270Z,103298.67
2019-02-15T02:20:11.039Z,103300.97
2019-02-15T02:22:40.318Z,103296.22
2019-02-15T02:25:09.728Z,103297.89
2019-02-15T02:27:39.410Z,103290.41
2019-02-15T02:30:09.861Z,103293.84
2019-02-15T02:32:39.186Z,103291.45
2019-02-15T02:35:08.804Z,103295.59
2019-02-15T02:37:38.079Z,103296.20
2019-02-15T02:40:12.085Z,103290.45
2019-02-15T02:42:41.371Z,103289.89
2019-02-15T02:45:10.615Z,103282.17
2019-02-15T02:47:39.852Z,103285.88
2019-02-15T02:50:09.064Z,103284.91
2019-02-15T02:52:38.852Z,103282.09
2019-02-15T02:55:32.123Z,103282.55
2019-02-15T02:58:01.340Z,103278.86
2019-02-15T03:00:33.627Z,103275.43
2019-02-15T03:03:01.845Z,103274.37
2019-02-15T03:05:31.049Z,103274.00
2019-02-15T03:08:00.355Z,103275.08
2019-02-15T03:10:29.631Z,103270.67
2019-02-15T03:12:58.846Z,103266.84
2019-02-15T03:15:28.070Z,103263.16
2019-02-15T03:17:57.295Z,103271.25
2019-02-15T03:20:31.190Z,103270.19
2019-02-15T03:22:57.573Z,103268.88
2019-02-15T03:25:26.790Z,103262.34
2019-02-15T03:27:56.030Z,103258.78
2019-02-15T03:30:25.263Z,103267.45
2019-02-15T03:32:54.538Z,103266.63
2019-02-15T03:35:23.747Z,103263.17
2019-02-15T03:38:07.445Z,103263.42
2019-02-15T03:40:42.889Z,103264.00
2019-02-15T03:43:12.196Z,103268.78
2019-02-15T03:45:41.425Z,103257.22
2019-02-15T03:48:10.708Z,103255.09
2019-02-15T03:50:39.922Z,103262.83
2019-02-15T03:53:09.622Z,103260.56
2019-02-15T03:55:38.952Z,103261.16
2019-02-15T03:58:08.190Z,103261.09
2019-02-15T04:00:37.641Z,103267.05
2019-02-15T04:03:06.870Z,103267.05
2019-02-15T04:05:36.082Z,103267.40
2019-02-15T04:08:05.429Z,103263.47
2019-02-15T04:10:34.671Z,103262.69
2019-02-15T04:13:03.901Z,103265.11
2019-02-15T04:15:33.181Z,103266.30
2019-02-15T04:18:02.425Z,103266.25
2019-02-15T04:23:59.872Z,103269.03
2019-02-15T04:26:29.194Z,103268.59
2019-02-15T04:28:58.427Z,103258.95
2019-02-15T04:31:27.685Z,103260.02
2019-02-15T04:33:57.205Z,103253.60
2019-02-15T04:36:26.548Z,103257.13
2019-02-15T04:38:55.788Z,103255.70
2019-02-15T04:41:25.020Z,103255.70
2019-02-15T04:43:54.436Z,103255.55
2019-02-15T04:46:23.666Z,103251.14
2019-02-15T04:48:52.882Z,103246.20
2019-02-15T04:51:22.168Z,103250.20
2019-02-15T04:53:51.429Z,103256.06
2019-02-15T04:56:20.718Z,103254.66
2019-02-15T04:58:51.727Z,103251.62
2019-02-15T05:01:20.962Z,103250.48
2019-02-15T05:03:50.183Z,103256.13
2019-02-15T05:06:37.774Z,103252.73
2019-02-15T05:09:07.020Z,103259.52
2019-02-15T05:11:36.283Z,103265.88
2019-02-15T05:14:06.227Z,103255.28
2019-02-15T05:16:35.561Z,103245.09
2019-02-15T05:19:04.784Z,103254.57
2019-02-15T05:21:34.050Z,103251.95
2019-02-15T05:24:03.682Z,103248.03
2019-02-15T05:26:32.954Z,103257.48
2019-02-15T05:29:02.166Z,103256.58
2019-02-15T05:31:31.452Z,103242.45
2019-02-15T05:34:00.730Z,103241.16
2019-02-15T05:36:29.987Z,103244.38
2019-02-15T05:38:59.217Z,103245.44
2019-02-15T05:41:28.514Z,103240.26
2019-02-15T05:43:58.148Z,103242.80
2019-02-15T05:46:27.357Z,103243.22
2019-02-15T05:48:56.575Z,103243.34
2019-02-15T05:51:25.815Z,103243.39
2019-02-15T05:53:55.097Z,103243.52
2019-02-15T05:56:24.393Z,103243.52
2019-02-15T05:58:53.678Z,103243.98
2019-02-15T06:01:24.816Z,103245.48
2019-02-15T06:03:54.117Z,103253.33
2019-02-15T06:06:23.401Z,103254.83
2019-02-15T06:08:52.701Z,103244.44
2019-02-15T06:11:21.942Z,103246.61
2019-02-15T06:13:51.225Z,103249.55
2019-02-15T06:16:20.513Z,103250.16
2019-02-15T06:18:49.743Z,103249.59
2019-02-15T06:21:19.060Z,103253.11
2019-02-15T06:23:48.299Z,103251.75
2019-02-15T06:26:18.009Z,103242.69
2019-02-15T06:28:47.252Z,103244.89
2019-02-15T06:31:16.525Z,103246.11
2019-02-15T06:33:45.802Z,103251.08
2019-02-15T06:36:15.083Z,103252.86
2019-02-15T06:38:44.304Z,103251.27
2019-02-15T06:41:13.597Z,103254.74
2019-02-15T06:43:43.722Z,103256.73
2019-02-15T06:46:16.145Z,103254.74
2019-02-15T06:48:45.436Z,103254.23
2019-02-15T06:51:14.727Z,103259.83
2019-02-15T06:53:44.079Z,103265.77
2019-02-15T06:56:13.400Z,103267.81
2019-02-15T06:59:00.563Z,103268.36
2019-02-15T07:01:48.794Z,103268.27
2019-02-15T07:04:43.246Z,103272.45
2019-02-15T07:07:15.323Z,103271.61
2019-02-15T07:09:44.617Z,103270.48
2019-02-15T07:12:17.076Z,103271.83
2019-02-15T07:14:46.484Z,103269.75
2019-02-15T07:17:15.804Z,103270.69
2019-02-15T07:19:45.100Z,103268.91
2019-02-15T07:22:14.377Z,103274.83
2019-02-15T07:24:47.202Z,103276.36
2019-02-15T07:27:16.582Z,103272.36
2019-02-15T07:29:45.855Z,103274.19
2019-02-15T07:32:20.829Z,103274.84
2019-02-15T07:34:50.161Z,103278.75
2019-02-15T07:37:19.455Z,103273.96
2019-02-15T07:39:54.578Z,103272.47
2019-02-15T07:42:24.326Z,103275.30
2019-02-15T07:44:53.671Z,103270.50
2019-02-15T07:47:23.020Z,103274.23
2019-02-15T07:49:52.317Z,103271.63
2019-02-15T07:52:21.603Z,103276.28
2019-02-15T07:54:50.908Z,103274.34
2019-02-15T07:57:21.235Z,103269.92
2019-02-15T07:59:50.666Z,103268.19
2019-02-15T08:02:19.955Z,103265.94
2019-02-15T08:04:49.227Z,103262.95
2019-02-15T08:07:18.582Z,103266.73
2019-02-15T08:09:47.928Z,103261.66
2019-02-15T08:12:17.908Z,103266.96
2019-02-15T08:14:47.211Z,103267.69
2019-02-15T08:17:16.585Z,103263.24
2019-02-15T08:19:47.065Z,103267.48
2019-02-15T08:22:16.425Z,103261.20
2019-02-15T08:24:45.715Z,103255.89
2019-02-15T08:27:14.973Z,103255.78
2019-02-15T08:29:47.108Z,103265.06
2019-02-15T08:32:19.352Z,103266.77
2019-02-15T08:34:49.049Z,103272.63
2019-02-15T08:37:18.597Z,103270.09
2019-02-15T08:39:48.069Z,103263.55
2019-02-15T08:42:17.333Z,103264.30
2019-02-15T08:44:46.934Z,103269.23
2019-02-15T08:47:18.656Z,103269.02
2019-02-15T08:49:47.998Z,103268.91
2019-02-15T08:52:21.335Z,103262.97
2019-02-15T08:54:50.917Z,103266.45
2019-02-15T08:57:20.633Z,103263.89
2019-02-15T08:59:50.123Z,103267.83
2019-02-15T09:02:23.939Z,103267.23
2019-02-15T09:04:53.272Z,103267.56
2019-02-15T09:07:24.705Z,103268.16
2019-02-15T09:09:54.536Z,103266.37
2019-02-15T09:12:24.028Z,103265.27
2019-02-15T09:14:53.387Z,103270.73
2019-02-15T09:17:22.697Z,103264.75
2019-02-15T09:19:59.880Z,103259.29
2019-02-15T09:22:29.331Z,103264.86
2019-02-15T09:24:58.608Z,103265.67
2019-02-15T09:28:05.216Z,103262.28
2019-02-15T09:30:34.505Z,103265.52
2019-02-15T09:33:06.368Z,103270.25
2019-02-15T09:35:38.343Z,103264.84
2019-02-15T09:38:07.706Z,103263.66
2019-02-15T09:40:37.037Z,103262.22
2019-02-15T09:43:06.598Z,103257.98
2019-02-15T09:45:39.761Z,103256.76
2019-02-15T09:48:09.858Z,103249.58
2019-02-15T09:50:41.721Z,103250.98
2019-02-15T09:53:11.541Z,103252.98
2019-02-15T09:55:40.977Z,103250.21
2019-02-15T09:58:10.291Z,103248.13
2019-02-15T10:00:42.584Z,103252.02
2019-02-15T10:03:12.067Z,103254.44
2019-02-15T10:05:41.316Z,103251.62
2019-02-15T10:08:10.563Z,103249.52
2019-02-15T10:10:43.425Z,103250.66
2019-02-15T10:13:13.461Z,103250.97
2019-02-15T10:15:45.847Z,103247.52
2019-02-15T10:18:15.760Z,103247.47
2019-02-15T10:20:48.310Z,103244.77
2019-02-15T10:23:28.017Z,103247.82
2019-02-15T10:25:57.411Z,103239.86
2019-02-15T10:28:26.857Z,103241.72
2019-02-15T10:30:56.158Z,103235.98
2019-02-15T10:33:25.959Z,103232.81
2019-02-15T10:35:55.327Z,103236.59
2019-02-15T10:38:24.631Z,103234.73
2019-02-15T10:40:54.220Z,103229.55
2019-02-15T10:43:23.531Z,103229.45
2019-02-15T10:45:52.940Z,103222.05
2019-02-15T10:48:27.335Z,103219.56
2019-02-15T10:50:56.686Z,103223.02
2019-02-15T10:53:26.358Z,103221.03
2019-02-15T10:55:55.685Z,103222.25
2019-02-15T10:58:26.390Z,103217.08
2019-02-15T11:00:56.034Z,103216.97
2019-02-15T11:03:25.319Z,103207.81
2019-02-15T11:05:54.634Z,103208.81
2019-02-15T11:08:24.558Z,103203.30
2019-02-15T11:10:53.860Z,103200.50
2019-02-15T11:13:23.132Z,103200.11
2019-02-15T11:15:56.395Z,103192.34
2019-02-15T11:18:25.715Z,103191.72
2019-02-15T11:20:56.807Z,103186.27
2019-02-15T11:23:26.164Z,103184.16
2019-02-15T11:25:55.422Z,103184.88
2019-02-15T11:28:27.037Z,103174.43
2019-02-15T11:30:56.349Z,103171.95
2019-02-15T11:33:25.828Z,103165.50
2019-02-15T11:35:55.574Z,103163.52
2019-02-15T11:38:24.897Z,103164.28
2019-02-15T11:40:54.721Z,103167.78
2019-02-15T11:43:24.052Z,103156.16
2019-02-15T11:45:59.487Z,103148.77
2019-02-15T11:48:29.519Z,103150.20
2019-02-15T11:50:58.877Z,103148.14
2019-02-15T11:53:28.215Z,103137.98
2019-02-15T11:55:57.428Z,103135.66
2019-02-15T11:58:26.646Z,103139.09
2019-02-15T12:00:55.901Z,103140.59
2019-02-15T12:03:25.171Z,103137.14
2019-02-15T12:05:54.427Z,103137.55
2019-02-15T12:08:23.696Z,103133.70
2019-02-15T12:10:52.952Z,103122.48
2019-02-15T12:13:22.402Z,103122.95
2019-02-15T12:15:51.679Z,103116.48
2019-02-15T12:18:20.959Z,103118.14
2019-02-15T12:20:50.248Z,103118.70
2019-02-15T12:23:19.511Z,103117.43
2019-02-15T12:25:48.772Z,103113.63
2019-02-15T12:28:18.757Z,103109.03
2019-02-15T12:30:48.033Z,103099.20
2019-02-15T12:33:17.276Z,103097.33
2019-02-15T12:35:46.655Z,103095.73
2019-02-15T12:38:15.878Z,103093.77
2019-02-15T12:40:45.115Z,103080.69
2019-02-15T12:43:14.307Z,103085.10
2019-02-15T12:45:43.583Z,103077.45
2019-02-15T12:48:12.803Z,103071.05
2019-02-15T12:50:42.077Z,103072.48
2019-02-15T12:53:11.267Z,103069.81
2019-02-15T12:55:40.861Z,103069.06
2019-02-15T12:58:10.288Z,103063.56
2019-02-15T13:04:09.019Z,103052.26
2019-02-15T13:06:38.399Z,103053.61
2019-02-15T13:09:07.780Z,103045.73
2019-02-15T13:11:38.349Z,103048.80
2019-02-15T13:14:07.655Z,103044.60
2019-02-15T13:16:36.901Z,103043.02
2019-02-15T13:19:06.177Z,103030.87
2019-02-15T13:21:35.531Z,103031.94
2019-02-15T13:24:04.779Z,103031.69
2019-02-15T13:26:34.037Z,103032.09
2019-02-15T13:29:03.284Z,103030.20
2019-02-15T13:31:32.608Z,103026.27
2019-02-15T13:34:01.845Z,103023.22
2019-02-15T13:36:31.121Z,103023.54
2019-02-15T13:39:00.359Z,103016.38
2019-02-15T13:41:29.658Z,103019.30
2019-02-15T13:44:01.983Z,103015.98
2019-02-15T13:46:33.238Z,103015.45
2019-02-15T13:49:02.177Z,103005.56
2019-02-15T13:51:31.490Z,102998.95
2019-02-15T13:54:00.742Z,103002.18
2019-02-15T13:56:30.024Z,102999.59
2019-02-15T13:58:59.300Z,102996.34
2019-02-15T14:01:28.563Z,102998.27
2019-02-15T14:03:57.814Z,102996.55
2019-02-15T14:06:27.053Z,102992.05
2019-02-15T14:08:56.319Z,102983.20
2019-02-15T14:11:25.559Z,102985.68
2019-02-15T14:13:54.897Z,102984.41
2019-02-15T14:16:24.264Z,102971.12
2019-02-15T14:18:53.923Z,102970.81
2019-02-15T14:21:23.193Z,102971.31
2019-02-15T14:23:52.450Z,102969.19
2019-02-15T14:26:22.117Z,102964.47
2019-02-15T14:28:51.467Z,102963.92
2019-02-15T14:31:23.473Z,102957.41
2019-02-15T14:33:52.702Z,102946.98
2019-02-15T14:36:22.044Z,102951.83
2019-02-15T14:38:51.262Z,102945.94
2019-02-15T14:41:20.485Z,102938.61
2019-02-15T14:43:49.737Z,102942.39
2019-02-15T14:46:18.978Z,102937.22
2019-02-15T14:48:48.234Z,102936.77
2019-02-15T14:51:17.556Z,102937.17
2019-02-15T14:53:49.772Z,102931.48
2019-02-15T14:56:19.047Z,102923.12
2019-02-15T14:58:48.321Z,102922.94
2019-02-15T15:01:17.565Z,102919.02
2019-02-15T15:03:47.140Z,102917.23
2019-02-15T15:06:16.589Z,102911.64
2019-02-15T15:08:45.928Z,102909.64
2019-02-15T15:11:15.286Z,102907.22
2019-02-15T15:13:44.514Z,102902.50
2019-02-15T15:16:23.499Z,102906.19
2019-02-15T15:18:52.819Z,102898.47
2019-02-15T15:21:22.054Z,102896.26
2019-02-15T15:23:51.355Z,102891.27
2019-02-15T15:27:08.749Z,102885.45
2019-02-15T15:29:38.025Z,102887.98
2019-02-15T15:32:07.351Z,102881.19
2019-02-15T15:34:40.509Z,102881.39
2019-02-15T15:37:16.534Z,102883.25
2019-02-15T15:39:44.160Z,102880.59
2019-02-15T15:42:13.442Z,102877.05
2019-02-15T15:44:42.720Z,102871.22
2019-02-15T15:47:12.058Z,102867.30
2019-02-15T15:49:41.425Z,102863.21
2019-02-15T15:52:10.758Z,102857.64
2019-02-15T15:54:40.075Z,102858.22
2019-02-15T15:57:09.388Z,102857.40
2019-02-15T15:59:38.635Z,102859.72
2019-02-15T16:02:07.976Z,102851.07
2019-02-15T16:04:37.217Z,102860.05
2019-02-15T16:07:06.559Z,102843.29
2019-02-15T16:09:35.796Z,102845.07
2019-02-15T16:12:05.098Z,102846.66
2019-02-15T16:14:34.500Z,102840.66
2019-02-15T16:17:03.825Z,102842.50
2019-02-15T16:19:40.567Z,102839.33
2019-02-15T16:22:04.251Z,102833.77
2019-02-15T16:24:33.582Z,102835.86
2019-02-15T16:27:02.901Z,102835.70
2019-02-15T16:29:32.488Z,102839.45
2019-02-15T16:32:01.771Z,102831.59
2019-02-15T16:34:31.039Z,102834.88
2019-02-15T16:37:00.352Z,102832.06
2019-02-15T16:39:29.649Z,102833.98
2019-02-15T16:41:58.902Z,102834.61
2019-02-15T16:44:28.182Z,102835.30
2019-02-15T16:46:57.545Z,102831.69
2019-02-15T16:49:26.864Z,102832.56
2019-02-15T16:51:56.199Z,102836.86
2019-02-15T16:54:25.582Z,102831.62
2019-02-15T16:56:56.141Z,102822.44
2019-02-15T16:59:25.428Z,102836.70
2019-02-15T17:01:54.760Z,102834.18
2019-02-15T17:04:24.736Z,102832.00
2019-02-15T17:06:54.054Z,102835.92
2019-02-15T17:09:23.519Z,102833.64
2019-02-15T17:11:52.892Z,102834.70
2019-02-15T17:14:22.096Z,102838.08
2019-02-15T17:16:52.496Z,102841.00
2019-02-15T17:19:21.878Z,102830.00
2019-02-15T17:21:51.097Z,102827.43
2019-02-15T17:24:20.458Z,102822.55
2019-02-15T17:26:49.696Z,102818.66
2019-02-15T17:29:19.006Z,102825.19
2019-02-15T17:31:49.517Z,102817.97
2019-02-15T17:34:18.839Z,102809.87
2019-02-15T17:36:48.473Z,102816.41
2019-02-15T17:39:17.875Z,102812.99
2019-02-15T17:41:47.689Z,102810.48
2019-02-15T17:44:16.901Z,102807.80
2019-02-15T17:46:46.171Z,102806.88
2019-02-15T17:49:15.771Z,102807.78
2019-02-15T17:51:45.075Z,102804.86
2019-02-15T17:54:15.199Z,102802.89
2019-02-15T17:56:44.511Z,102806.13
2019-02-15T17:59:13.769Z,102797.88
2019-02-15T18:01:43.070Z,102795.36
2019-02-15T18:04:12.392Z,102793.16
2019-02-15T18:06:41.759Z,102798.50
2019-02-15T18:09:11.317Z,102801.55
2019-02-15T18:11:40.757Z,102798.76
2019-02-15T18:14:10.353Z,102797.21
2019-02-15T18:16:49.390Z,102798.22
2019-02-15T18:19:18.653Z,102792.75
2019-02-15T18:21:47.922Z,102798.50
2019-02-15T18:25:11.692Z,102790.41
2019-02-15T18:27:41.407Z,102785.34
2019-02-15T18:30:14.298Z,102783.23
2019-02-15T18:32:43.545Z,102780.30
2019-02-15T18:35:23.329Z,102778.87
2019-02-15T18:37:54.690Z,102772.66
2019-02-15T18:40:24.003Z,102768.87
2019-02-15T18:42:57.086Z,102769.37
2019-02-15T18:45:26.435Z,102773.48
2019-02-15T18:48:19.452Z,102764.73
2019-02-15T18:50:48.792Z,102771.23
2019-02-15T18:53:18.177Z,102768.08
2019-02-15T18:55:47.557Z,102768.14
2019-02-15T18:58:16.877Z,102766.48
2019-02-15T19:00:46.409Z,102763.55
2019-02-15T19:03:15.940Z,102756.58
2019-02-15T19:05:45.217Z,102756.88
2019-02-15T19:08:14.568Z,102759.34
2019-02-15T19:10:43.860Z,102756.58
2019-02-15T19:13:20.543Z,102752.70
2019-02-15T19:15:50.059Z,102749.72
2019-02-15T19:18:19.340Z,102751.57
2019-02-15T19:20:48.637Z,102747.05
2019-02-15T19:24:24.049Z,102745.73
2019-02-15T19:26:53.445Z,102748.87
2019-02-15T19:29:22.729Z,102741.16
2019-02-15T19:31:52.108Z,102734.75
2019-02-15T19:34:21.887Z,102732.60
2019-02-15T19:36:51.200Z,102722.42
2019-02-15T19:39:20.535Z,102727.70
2019-02-15T19:41:49.850Z,102725.77
2019-02-15T19:44:19.181Z,102722.80
2019-02-15T19:46:48.578Z,102724.64
2019-02-15T19:49:19.146Z,102718.86
2019-02-15T19:51:48.480Z,102718.54
2019-02-15T19:54:17.960Z,102723.33
2019-02-15T19:56:47.270Z,102716.88
2019-02-15T19:59:16.611Z,102718.88
2019-02-15T20:01:45.971Z,102717.58
2019-02-15T20:04:15.279Z,102713.27
2019-02-15T20:06:44.610Z,102716.59
2019-02-15T20:09:14.077Z,102713.63
2019-02-15T20:11:43.500Z,102707.50
2019-02-15T20:14:13.170Z,102703.73
2019-02-15T20:16:42.541Z,102703.56
2019-02-15T20:19:11.858Z,102703.58
2019-02-15T20:21:41.140Z,102704.58
2019-02-15T20:24:10.501Z,102706.38
2019-02-15T20:26:39.829Z,102707.02
2019-02-15T20:29:09.381Z,102701.94
2019-02-15T20:31:38.741Z,102693.20
2019-02-15T20:34:08.060Z,102694.67
2019-02-15T20:36:37.378Z,102695.32
2019-02-15T20:39:06.820Z,102688.89
2019-02-15T20:41:36.181Z,102688.90
2019-02-15T20:44:05.675Z,102684.80
2019-02-15T20:46:35.039Z,102684.60
2019-02-15T20:49:05.086Z,102684.94
2019-02-15T20:51:34.597Z,102683.97
2019-02-15T20:54:04.089Z,102680.52
2019-02-15T20:56:33.587Z,102678.70
2019-02-15T20:59:02.998Z,102675.39
2019-02-15T21:01:37.203Z,102669.78
2019-02-15T21:04:06.979Z,102670.43
2019-02-15T21:06:36.925Z,102669.28
2019-02-15T21:09:07.532Z,102666.15
2019-02-15T21:11:37.002Z,102670.61
2019-02-15T21:14:06.345Z,102664.48
2019-02-15T21:16:35.716Z,102667.13
2019-02-15T21:19:04.973Z,102666.13
2019-02-15T21:21:34.368Z,102656.71
2019-02-15T21:24:03.899Z,102656.38
2019-02-15T21:26:33.284Z,102650.62
2019-02-15T21:29:02.742Z,102652.92
2019-02-15T21:31:32.328Z,102645.34
2019-02-15T21:34:03.109Z,102640.73
2019-02-15T21:36:32.786Z,102636.45
2019-02-15T21:39:02.305Z,102637.41
2019-02-15T21:41:32.301Z,102636.75
2019-02-15T21:44:01.627Z,102637.11
2019-02-15T21:47:04.430Z,102630.74
2019-02-15T21:49:33.734Z,102631.39
2019-02-15T21:52:27.312Z,102630.24
2019-02-15T21:54:56.535Z,102627.56
2019-02-15T21:57:25.840Z,102630.69
2019-02-15T21:59:55.143Z,102626.13
2019-02-15T22:02:24.515Z,102620.20
2019-02-15T22:04:53.779Z,102626.24
2019-02-15T22:07:23.454Z,102627.73
2019-02-15T22:09:52.690Z,102623.48
2019-02-15T22:12:21.914Z,102621.45
2019-02-15T22:14:51.214Z,102629.37
2019-02-15T22:17:20.467Z,102625.75
2019-02-15T22:19:49.746Z,102622.45
2019-02-15T22:22:19.049Z,102620.31
2019-02-15T22:24:48.321Z,102620.98
2019-02-15T22:27:17.589Z,102617.30
2019-02-15T22:29:46.988Z,102614.31
2019-02-15T22:32:16.210Z,102613.00
2019-02-15T22:34:45.463Z,102615.97
2019-02-15T22:37:14.678Z,102618.98
2019-02-15T22:39:43.993Z,102615.98
2019-02-15T22:42:13.257Z,102614.48
2019-02-15T22:44:42.540Z,102609.38
2019-02-15T22:47:20.592Z,102608.16
2019-02-15T22:49:49.829Z,102606.02
2019-02-15T22:52:19.084Z,102607.22
2019-02-15T22:54:48.332Z,102608.66
2019-02-15T22:57:17.546Z,102607.66
2019-02-15T22:59:46.782Z,102601.91
2019-02-15T23:02:16.173Z,102598.30
2019-02-15T23:04:45.416Z,102593.50
2019-02-15T23:07:14.615Z,102590.81
2019-02-15T23:09:43.901Z,102589.80
2019-02-15T23:12:13.150Z,102581.50
2019-02-15T23:14:42.416Z,102587.38
2019-02-15T23:17:11.651Z,102576.37
2019-02-15T23:19:40.908Z,102576.41
2019-02-15T23:22:10.172Z,102568.68
2019-02-15T23:24:39.408Z,102575.26
2019-02-15T23:27:08.646Z,102574.39
2019-02-15T23:29:37.882Z,102579.60
2019-02-15T23:32:07.095Z,102582.61
2019-02-15T23:34:36.331Z,102587.14
2019-02-15T23:37:05.581Z,102577.73
2019-02-15T23:39:34.805Z,102567.95
2019-02-15T23:42:04.032Z,102575.44
2019-02-15T23:44:33.627Z,102568.09
2019-02-15T23:47:02.837Z,102565.39
2019-02-15T23:49:32.101Z,102565.44
2019-02-15T23:52:01.288Z,102564.47
2019-02-15T23:54:30.525Z,102568.38
2019-02-15T23:56:59.873Z,102567.55
2019-02-15T23:59:35.578Z,102567.55
